Attica, Michigan
Current Conditions -  °F | °C
As of 9:13 AM on Monday 26 Jan 2015 (Local Time) from KD95 Reporting Station
Clear Clear  
Wind Chill:   Ceiling: Unl
Heat Index:   Visibility: 10mi
Dew Point:   Wind: 0mph
Humidity: 89%   Direction: NA
Pressure: 29.96"   Gusts: NA
Location:  43.03°N, 83.17°W
Report Text: KD95 261413Z AUTO 00000KT 10SM CLR M14/M16 A2996 RMK AO2 T11451159
Loading
Personal Weather Stations






























Interactive Weather Map New forecast layout! Learn more

10-Day Weather Forecast

Advertisements
Track Severe Weather on mobile